« Back
NWS Peachtree City, Ga » Text Product » MCN Terminal Aerodrome Forecast


Printer-friendly Version
Current Version              Previous Versions:   1  2  3  4  5  6  7  8  9  

Terminal Aerodrome Forecast

714
FTUS42 KFFC 040450 AAA
TAFMCN
TAF AMD
KMCN 040450Z 0405/0424 26006KT P6SM SCT035 BKN080
      TEMPO 0405/0407 25015G30KT 2SM TSRA BKN030CB
     FM040900 24004KT P6SM VCSH SCT020 BKN045
     FM041400 26010G17KT P6SM SCT035 BKN100
     FM041800 26012G20KT P6SM SCT045 BKN100 PROB30 0420/0424 4SM
      -TSRA BR BKN025CB=



USA.gov is the U.S. government's official web portal to all federal, state and local government web resources and services.